createdAt,value
2019-05-22T00:02:00.101Z,12.00
2019-05-22T00:04:31.277Z,11.90
2019-05-22T00:06:59.451Z,11.90
2019-05-22T00:09:28.788Z,11.90
2019-05-22T00:11:56.128Z,11.80
2019-05-22T00:14:25.106Z,11.80
2019-05-22T00:16:51.373Z,11.90
2019-05-22T00:19:19.516Z,12.00
2019-05-22T00:21:49.470Z,12.10
2019-05-22T00:24:16.132Z,12.00
2019-05-22T00:26:43.176Z,11.90
2019-05-22T00:29:09.960Z,12.00
2019-05-22T00:31:37.669Z,12.10
2019-05-22T00:34:04.425Z,11.90
2019-05-22T00:36:32.503Z,11.90
2019-05-22T00:39:00.051Z,11.80
2019-05-22T00:41:30.709Z,12.00
2019-05-22T00:43:57.651Z,12.10
2019-05-22T00:46:24.798Z,12.00
2019-05-22T00:48:51.652Z,11.90
2019-05-22T00:51:25.891Z,11.80
2019-05-22T00:53:59.868Z,11.80
2019-05-22T00:56:30.830Z,11.90
2019-05-22T00:58:59.110Z,12.00
2019-05-22T01:01:32.288Z,11.80
2019-05-22T01:03:59.095Z,11.80
2019-05-22T01:06:28.646Z,11.80
2019-05-22T01:08:56.024Z,11.70
2019-05-22T01:11:24.503Z,11.90
2019-05-22T01:13:51.139Z,11.80
2019-05-22T01:16:18.815Z,11.90
2019-05-22T01:18:46.265Z,11.90
2019-05-22T01:21:15.252Z,11.90
2019-05-22T01:23:42.872Z,11.90
2019-05-22T01:26:14.810Z,11.90
2019-05-22T01:28:42.348Z,11.80
2019-05-22T01:31:14.061Z,11.80
2019-05-22T01:33:48.106Z,11.80
2019-05-22T01:36:19.088Z,11.90
2019-05-22T01:38:47.647Z,11.90
2019-05-22T01:41:19.453Z,11.70
2019-05-22T01:43:48.522Z,11.70
2019-05-22T01:46:15.508Z,11.70
2019-05-22T01:48:44.537Z,11.80
2019-05-22T01:51:11.296Z,11.70
2019-05-22T01:53:40.338Z,11.70
2019-05-22T01:56:15.795Z,11.80
2019-05-22T01:58:43.209Z,11.80
2019-05-22T02:01:13.577Z,11.80
2019-05-22T02:03:40.122Z,11.90
2019-05-22T02:06:06.830Z,11.90
2019-05-22T02:08:41.105Z,11.90
2019-05-22T02:11:10.551Z,11.90
2019-05-22T02:13:42.519Z,11.70
2019-05-22T02:16:08.855Z,11.80
2019-05-22T02:18:38.235Z,11.70
2019-05-22T02:21:06.099Z,11.80
2019-05-22T02:23:33.296Z,11.60
2019-05-22T02:26:04.428Z,11.60
2019-05-22T02:28:32.778Z,11.60
2019-05-22T02:31:00.828Z,11.60
2019-05-22T02:33:29.100Z,11.60
2019-05-22T02:35:55.736Z,11.60
2019-05-22T02:38:22.723Z,11.70
2019-05-22T02:40:52.362Z,11.60
2019-05-22T02:43:18.846Z,11.70
2019-05-22T02:45:46.073Z,11.70
2019-05-22T02:48:14.451Z,11.60
2019-05-22T02:50:41.824Z,11.70
2019-05-22T02:53:11.662Z,11.60
2019-05-22T02:55:39.236Z,11.70
2019-05-22T02:58:05.895Z,11.80
2019-05-22T03:00:55.249Z,11.70
2019-05-22T03:03:22.785Z,11.70
2019-05-22T03:05:49.967Z,11.60
2019-05-22T03:08:16.303Z,11.60
2019-05-22T03:11:04.957Z,11.70
2019-05-22T03:13:55.138Z,11.70
2019-05-22T03:16:21.367Z,11.70
2019-05-22T03:18:48.017Z,11.70
2019-05-22T03:21:15.185Z,11.60
2019-05-22T03:23:41.578Z,11.50
2019-05-22T03:26:08.999Z,11.50
2019-05-22T03:28:36.078Z,11.50
2019-05-22T03:31:04.473Z,11.60
2019-05-22T03:33:31.130Z,11.40
2019-05-22T03:36:09.181Z,11.50
2019-05-22T03:38:38.163Z,11.50
2019-05-22T03:41:05.413Z,11.60
2019-05-22T03:43:34.814Z,11.60
2019-05-22T03:46:13.658Z,11.60
2019-05-22T03:48:40.301Z,11.60
2019-05-22T03:51:11.982Z,11.50
2019-05-22T03:53:39.018Z,11.50
2019-05-22T03:56:05.974Z,11.50
2019-05-22T03:58:32.813Z,11.60
2019-05-22T04:01:00.748Z,11.60
2019-05-22T04:03:26.986Z,11.50
2019-05-22T04:05:56.158Z,11.60
2019-05-22T04:08:23.398Z,11.60
2019-05-22T04:10:59.224Z,11.50
2019-05-22T04:13:26.828Z,11.40
2019-05-22T04:15:54.522Z,11.40
2019-05-22T04:18:23.292Z,11.60
2019-05-22T04:20:50.332Z,11.60
2019-05-22T04:23:16.770Z,11.50
2019-05-22T04:25:43.085Z,11.40
2019-05-22T04:28:09.724Z,11.40
2019-05-22T04:30:37.764Z,11.40
2019-05-22T04:33:04.218Z,11.50
2019-05-22T04:35:31.757Z,11.50
2019-05-22T04:37:58.912Z,11.50
2019-05-22T04:40:37.829Z,11.60
2019-05-22T04:43:06.209Z,11.60
2019-05-22T04:45:32.917Z,11.50
2019-05-22T04:48:03.122Z,11.50
2019-05-22T04:50:30.455Z,11.50
2019-05-22T04:52:57.162Z,11.50
2019-05-22T04:55:23.833Z,11.50
2019-05-22T04:57:50.651Z,11.50
2019-05-22T05:00:17.894Z,11.50
2019-05-22T05:02:44.189Z,11.50
2019-05-22T05:05:11.180Z,11.60
2019-05-22T05:07:38.626Z,11.50
2019-05-22T05:10:05.309Z,11.60
2019-05-22T05:12:31.598Z,11.40
2019-05-22T05:14:58.208Z,11.40
2019-05-22T05:17:24.572Z,11.50
2019-05-22T05:19:51.042Z,11.60
2019-05-22T05:22:24.179Z,11.50
2019-05-22T05:24:51.078Z,11.60
2019-05-22T05:27:17.710Z,11.40
2019-05-22T05:29:44.167Z,11.30
2019-05-22T05:32:11.249Z,11.40
2019-05-22T05:34:50.442Z,11.40
2019-05-22T05:37:18.815Z,11.40
2019-05-22T05:39:51.440Z,11.30
2019-05-22T05:42:17.796Z,11.40
2019-05-22T05:44:44.205Z,11.80
2019-05-22T05:47:10.505Z,11.60
2019-05-22T05:49:36.860Z,11.50
2019-05-22T05:52:03.319Z,11.40
2019-05-22T05:54:30.855Z,11.40
2019-05-22T05:57:17.564Z,11.40
2019-05-22T05:59:44.233Z,11.50
2019-05-22T06:02:11.775Z,11.60
2019-05-22T06:04:38.360Z,11.70
2019-05-22T06:07:17.750Z,11.70
2019-05-22T06:09:53.252Z,11.60
2019-05-22T06:12:20.199Z,11.50
2019-05-22T06:14:47.380Z,11.70
2019-05-22T06:17:25.497Z,11.50
2019-05-22T06:19:56.029Z,11.40
2019-05-22T06:22:22.369Z,11.30
2019-05-22T06:24:59.400Z,11.30
2019-05-22T06:27:30.648Z,11.40
2019-05-22T06:30:02.218Z,11.40
2019-05-22T06:32:54.826Z,11.20
2019-05-22T06:35:21.688Z,11.20
2019-05-22T06:38:00.911Z,11.40
2019-05-22T06:40:27.544Z,11.40
2019-05-22T06:43:24.203Z,11.50
2019-05-22T06:45:54.196Z,11.40
2019-05-22T06:48:20.873Z,11.30
2019-05-22T06:50:49.443Z,11.30
2019-05-22T06:53:16.062Z,11.30
2019-05-22T06:55:42.654Z,11.30
2019-05-22T06:58:09.747Z,11.40
2019-05-22T07:00:36.594Z,11.40
2019-05-22T07:03:03.607Z,11.40
2019-05-22T07:05:30.522Z,11.50
2019-05-22T07:07:59.377Z,11.50
2019-05-22T07:10:26.262Z,11.40
2019-05-22T07:12:52.870Z,11.60
2019-05-22T07:15:20.723Z,11.50
2019-05-22T07:17:48.572Z,11.50
2019-05-22T07:20:15.814Z,11.50
2019-05-22T07:22:42.605Z,11.40
2019-05-22T07:25:10.249Z,11.40
2019-05-22T07:27:37.908Z,11.60
2019-05-22T07:30:07.223Z,11.50
2019-05-22T07:32:33.963Z,11.50
2019-05-22T07:35:00.650Z,11.40
2019-05-22T07:37:29.479Z,11.40
2019-05-22T07:39:56.196Z,11.40
2019-05-22T07:42:22.561Z,11.30
2019-05-22T07:44:48.876Z,11.40
2019-05-22T07:47:19.589Z,11.40
2019-05-22T07:49:46.336Z,11.40
2019-05-22T07:52:13.576Z,11.50
2019-05-22T07:54:39.933Z,11.60
2019-05-22T07:57:09.320Z,11.60
2019-05-22T07:59:36.125Z,11.50
2019-05-22T08:02:06.050Z,11.50
2019-05-22T08:04:32.818Z,11.50
2019-05-22T08:06:59.952Z,11.50
2019-05-22T08:09:26.444Z,11.40
2019-05-22T08:11:53.159Z,11.40
2019-05-22T08:14:21.715Z,11.30
2019-05-22T08:16:48.615Z,11.40
2019-05-22T08:19:15.101Z,11.40
2019-05-22T08:21:41.368Z,11.50
2019-05-22T08:24:07.740Z,11.40
2019-05-22T08:26:51.627Z,11.30
2019-05-22T08:29:04.497Z,11.50
2019-05-22T08:31:31.559Z,11.50
2019-05-22T08:33:58.254Z,11.50
2019-05-22T08:36:25.136Z,11.40
2019-05-22T08:38:53.387Z,11.50
2019-05-22T08:41:23.539Z,11.50
2019-05-22T08:44:13.918Z,11.50
2019-05-22T08:46:18.859Z,11.70
2019-05-22T08:48:48.723Z,11.70
2019-05-22T08:51:15.380Z,11.80
2019-05-22T08:53:47.397Z,11.80
2019-05-22T08:56:11.181Z,11.80
2019-05-22T08:58:38.874Z,11.70
2019-05-22T09:01:06.968Z,11.60
2019-05-22T09:03:33.524Z,11.70
2019-05-22T09:06:00.014Z,11.60
2019-05-22T09:08:26.494Z,11.50
2019-05-22T09:10:52.854Z,11.50
2019-05-22T09:13:19.246Z,11.50
2019-05-22T09:15:47.669Z,11.60
2019-05-22T09:18:14.213Z,11.60
2019-05-22T09:20:49.399Z,11.70
2019-05-22T09:23:10.876Z,11.70
2019-05-22T09:25:37.861Z,11.70
2019-05-22T09:28:07.439Z,11.80
2019-05-22T09:30:34.031Z,11.70
2019-05-22T09:33:01.330Z,11.90
2019-05-22T09:35:28.348Z,11.90
2019-05-22T09:37:55.598Z,11.70
2019-05-22T09:40:22.045Z,11.80
2019-05-22T09:42:48.719Z,11.90
2019-05-22T09:45:17.191Z,11.80
2019-05-22T09:47:43.681Z,11.80
2019-05-22T09:50:12.581Z,11.90
2019-05-22T09:52:54.624Z,12.00
2019-05-22T09:55:08.995Z,12.10
2019-05-22T09:57:35.872Z,12.00
2019-05-22T10:00:10.464Z,12.00
2019-05-22T10:02:37.014Z,12.10
2019-05-22T10:05:05.609Z,12.20
2019-05-22T10:07:31.877Z,12.20
2019-05-22T10:09:58.340Z,12.20
2019-05-22T10:12:24.953Z,12.20
2019-05-22T10:14:52.490Z,12.20
2019-05-22T10:17:19.397Z,12.20
2019-05-22T10:19:46.265Z,12.30
2019-05-22T10:22:13.126Z,12.50
2019-05-22T10:24:40.238Z,12.50
2019-05-22T10:27:08.617Z,12.20
2019-05-22T10:29:35.633Z,12.20
2019-05-22T10:32:02.713Z,12.30
2019-05-22T10:34:29.457Z,12.20
2019-05-22T10:36:55.964Z,12.40
2019-05-22T10:39:24.710Z,12.40
2019-05-22T10:41:50.610Z,12.40
2019-05-22T10:44:17.265Z,12.40
2019-05-22T10:46:43.763Z,12.40
2019-05-22T10:49:10.218Z,12.60
2019-05-22T10:51:37.069Z,12.90
2019-05-22T10:54:04.200Z,12.70
2019-05-22T10:56:31.427Z,12.70
2019-05-22T10:59:01.432Z,12.60
2019-05-22T11:01:27.724Z,12.60
2019-05-22T11:03:54.594Z,12.70
2019-05-22T11:06:22.467Z,12.60
2019-05-22T11:08:48.849Z,12.60
2019-05-22T11:11:15.694Z,12.60
2019-05-22T11:13:59.317Z,12.60
2019-05-22T11:16:11.222Z,12.60
2019-05-22T11:18:38.177Z,12.60
2019-05-22T11:21:04.995Z,12.60
2019-05-22T11:23:31.579Z,12.50
2019-05-22T11:25:58.758Z,12.40
2019-05-22T11:28:26.213Z,12.50
2019-05-22T11:30:52.896Z,12.50
2019-05-22T11:33:19.577Z,12.50
2019-05-22T11:35:46.136Z,12.50
2019-05-22T11:38:13.437Z,12.40
2019-05-22T11:40:41.745Z,12.50
2019-05-22T11:43:09.721Z,12.70
2019-05-22T11:45:36.327Z,12.80
2019-05-22T11:48:03.746Z,12.70
2019-05-22T11:50:36.337Z,12.70
2019-05-22T11:53:03.565Z,12.70
2019-05-22T11:55:43.616Z,12.60
2019-05-22T11:57:59.423Z,12.60
2019-05-22T12:00:25.900Z,12.70
2019-05-22T12:02:53.701Z,12.90
2019-05-22T12:05:20.797Z,12.80
2019-05-22T12:07:47.566Z,12.90
2019-05-22T12:10:14.703Z,12.80
2019-05-22T12:12:41.075Z,12.80
2019-05-22T12:15:08.490Z,12.80
2019-05-22T12:17:38.433Z,12.80
2019-05-22T12:20:06.200Z,12.60
2019-05-22T12:22:33.696Z,12.80
2019-05-22T12:25:00.468Z,12.90
2019-05-22T12:27:27.218Z,12.90
2019-05-22T12:29:53.631Z,12.90
2019-05-22T12:32:21.425Z,12.90
2019-05-22T12:34:49.484Z,12.90
2019-05-22T12:37:16.374Z,13.00
2019-05-22T12:39:42.899Z,13.20
2019-05-22T12:42:11.882Z,13.20
2019-05-22T12:44:38.565Z,13.10
2019-05-22T12:47:07.193Z,13.10
2019-05-22T12:49:33.892Z,13.20
2019-05-22T12:52:01.754Z,13.20
2019-05-22T12:54:45.310Z,13.30
2019-05-22T12:56:57.245Z,13.20
2019-05-22T12:59:24.805Z,13.10
2019-05-22T13:01:52.485Z,13.10
2019-05-22T13:04:20.048Z,13.00
2019-05-22T13:06:46.773Z,13.00
2019-05-22T13:09:14.437Z,13.10
2019-05-22T13:11:41.146Z,13.10
2019-05-22T13:14:07.850Z,13.00
2019-05-22T13:16:34.658Z,13.10
2019-05-22T13:19:01.356Z,13.00
2019-05-22T13:21:29.666Z,13.00
2019-05-22T13:23:59.715Z,13.00
2019-05-22T13:26:26.282Z,12.80
2019-05-22T13:28:53.206Z,12.90
2019-05-22T13:31:20.121Z,13.00
2019-05-22T13:33:47.332Z,13.10
2019-05-22T13:36:16.592Z,13.10
2019-05-22T13:38:43.119Z,13.00
2019-05-22T13:41:10.094Z,13.10
2019-05-22T13:43:36.845Z,13.10
2019-05-22T13:46:03.793Z,13.20
2019-05-22T13:48:30.047Z,13.40
2019-05-22T13:50:57.606Z,13.40
2019-05-22T13:53:24.814Z,13.40
2019-05-22T13:55:52.534Z,13.30
2019-05-22T13:58:21.255Z,13.20
2019-05-22T14:00:49.141Z,13.30
2019-05-22T14:03:15.932Z,13.40
2019-05-22T14:05:44.316Z,13.50
2019-05-22T14:08:11.162Z,13.40
2019-05-22T14:10:38.244Z,13.40
2019-05-22T14:13:05.041Z,13.40
2019-05-22T14:15:47.831Z,13.50
2019-05-22T14:18:00.331Z,13.70
2019-05-22T14:20:26.863Z,13.80
2019-05-22T14:22:53.383Z,13.80
2019-05-22T14:25:21.603Z,13.70
2019-05-22T14:27:47.978Z,13.60
2019-05-22T14:30:36.023Z,13.40
2019-05-22T14:33:05.305Z,13.40
2019-05-22T14:35:47.543Z,13.40
2019-05-22T14:38:04.468Z,13.50
2019-05-22T14:40:31.425Z,13.50
2019-05-22T14:43:00.504Z,13.60
2019-05-22T14:45:27.137Z,13.70
2019-05-22T14:47:53.926Z,13.70
2019-05-22T14:50:23.015Z,13.50
2019-05-22T14:52:50.818Z,13.60
2019-05-22T14:55:17.278Z,13.60
2019-05-22T14:57:43.894Z,13.80
2019-05-22T15:00:13.427Z,13.80
2019-05-22T15:02:39.993Z,13.80
2019-05-22T15:05:08.013Z,13.90
2019-05-22T15:07:34.385Z,13.90
2019-05-22T15:10:00.842Z,14.20
2019-05-22T15:12:27.494Z,14.40
2019-05-22T15:14:54.333Z,14.40
2019-05-22T15:17:32.470Z,14.40
2019-05-22T15:19:51.005Z,14.30
2019-05-22T15:22:17.622Z,14.40
2019-05-22T15:24:44.637Z,14.50
2019-05-22T15:27:12.214Z,14.70
2019-05-22T15:29:39.000Z,14.60
2019-05-22T15:32:05.675Z,14.70
2019-05-22T15:34:34.015Z,14.80
2019-05-22T15:37:00.692Z,14.90
2019-05-22T15:39:29.249Z,15.20
2019-05-22T15:41:55.699Z,14.90
2019-05-22T15:44:22.786Z,14.80
2019-05-22T15:46:52.743Z,14.90
2019-05-22T15:49:20.486Z,15.20
2019-05-22T15:51:48.144Z,15.20
2019-05-22T15:54:17.197Z,15.30
2019-05-22T15:56:45.673Z,15.10
2019-05-22T15:59:12.251Z,15.10
2019-05-22T16:01:40.978Z,14.90
2019-05-22T16:04:10.318Z,14.60
2019-05-22T16:06:36.777Z,14.70
2019-05-22T16:09:07.469Z,14.60
2019-05-22T16:11:34.443Z,14.50
2019-05-22T16:14:02.921Z,14.50
2019-05-22T16:16:32.042Z,14.60
2019-05-22T16:19:02.813Z,14.70
2019-05-22T16:21:29.182Z,14.90
2019-05-22T16:23:56.935Z,14.90
2019-05-22T16:26:23.994Z,14.80
2019-05-22T16:28:50.450Z,15.00
2019-05-22T16:31:17.551Z,15.00
2019-05-22T16:33:45.568Z,14.90
2019-05-22T16:36:12.729Z,14.80
2019-05-22T16:38:41.106Z,14.70
2019-05-22T16:41:07.891Z,14.60
2019-05-22T16:43:47.962Z,14.50
2019-05-22T16:46:05.882Z,14.60
2019-05-22T16:48:32.159Z,14.40
2019-05-22T16:50:58.668Z,14.30
2019-05-22T16:53:25.717Z,14.30
2019-05-22T16:55:53.205Z,14.30
2019-05-22T16:58:20.971Z,14.30
2019-05-22T17:00:47.633Z,14.30
2019-05-22T17:03:15.361Z,14.40
2019-05-22T17:05:42.353Z,14.40
2019-05-22T17:08:08.799Z,14.40
2019-05-22T17:10:35.551Z,14.10
2019-05-22T17:13:04.075Z,14.20
2019-05-22T17:15:32.486Z,14.00
2019-05-22T17:17:59.082Z,14.10
2019-05-22T17:20:27.761Z,14.10
2019-05-22T17:22:55.053Z,14.10
2019-05-22T17:25:21.588Z,13.90
2019-05-22T17:27:49.048Z,14.00
2019-05-22T17:30:20.625Z,13.90
2019-05-22T17:32:46.635Z,14.10
2019-05-22T17:35:16.167Z,14.20
2019-05-22T17:37:43.791Z,14.10
2019-05-22T17:40:12.001Z,13.80
2019-05-22T17:42:38.770Z,13.90
2019-05-22T17:45:08.635Z,13.80
2019-05-22T17:47:35.336Z,13.80
2019-05-22T17:50:03.879Z,13.90
2019-05-22T17:52:30.268Z,13.70
2019-05-22T17:54:57.556Z,13.60
2019-05-22T17:57:24.707Z,13.60
2019-05-22T17:59:51.883Z,13.70
2019-05-22T18:02:20.182Z,13.50
2019-05-22T18:04:46.725Z,13.50
2019-05-22T18:07:13.291Z,13.60
2019-05-22T18:09:39.962Z,13.60
2019-05-22T18:12:07.024Z,13.60
2019-05-22T18:14:34.615Z,13.60
2019-05-22T18:17:00.994Z,13.50
2019-05-22T18:19:27.543Z,13.40
2019-05-22T18:21:53.841Z,13.50
2019-05-22T18:24:20.595Z,13.60
2019-05-22T18:26:47.140Z,13.50
2019-05-22T18:29:13.559Z,13.50
2019-05-22T18:31:40.344Z,13.40
2019-05-22T18:34:26.659Z,13.50
2019-05-22T18:36:53.186Z,13.40
2019-05-22T18:39:19.788Z,13.10
2019-05-22T18:41:46.311Z,13.00
2019-05-22T18:44:13.060Z,12.90
2019-05-22T18:46:39.325Z,12.90
2019-05-22T18:49:05.906Z,13.00
2019-05-22T18:51:32.740Z,13.10
2019-05-22T18:53:59.039Z,13.10
2019-05-22T18:56:25.686Z,13.20
2019-05-22T18:58:52.871Z,13.00
2019-05-22T19:01:19.561Z,13.00
2019-05-22T19:03:46.072Z,12.80
2019-05-22T19:06:12.295Z,12.70
2019-05-22T19:08:39.222Z,12.70
2019-05-22T19:11:05.660Z,12.80
2019-05-22T19:13:32.085Z,13.00
2019-05-22T19:15:58.549Z,13.20
2019-05-22T19:18:25.332Z,13.20
2019-05-22T19:20:51.899Z,13.10
2019-05-22T19:23:18.408Z,13.10
2019-05-22T19:25:44.838Z,12.90
2019-05-22T19:28:11.391Z,12.70
2019-05-22T19:30:38.387Z,12.90
2019-05-22T19:33:05.095Z,13.00
2019-05-22T19:35:31.622Z,12.70
2019-05-22T19:37:58.814Z,12.70
2019-05-22T19:40:25.244Z,12.70
2019-05-22T19:42:51.801Z,12.60
2019-05-22T19:45:18.608Z,12.50
2019-05-22T19:47:50.548Z,12.40
2019-05-22T19:50:23.285Z,12.30
2019-05-22T19:52:45.929Z,12.50
2019-05-22T19:55:13.609Z,12.70
2019-05-22T19:57:41.097Z,12.70
2019-05-22T20:00:08.954Z,12.70
2019-05-22T20:02:35.533Z,12.70
2019-05-22T20:05:03.861Z,12.60
2019-05-22T20:07:32.353Z,12.70
2019-05-22T20:09:59.399Z,12.60
2019-05-22T20:12:26.387Z,12.50
2019-05-22T20:14:53.497Z,12.40
2019-05-22T20:17:20.347Z,12.20
2019-05-22T20:19:46.633Z,12.40
2019-05-22T20:22:13.529Z,12.50
2019-05-22T20:24:39.997Z,12.40
2019-05-22T20:27:09.524Z,12.30
2019-05-22T20:29:35.175Z,12.30
2019-05-22T20:32:02.134Z,12.50
2019-05-22T20:34:28.415Z,12.50
2019-05-22T20:36:55.732Z,12.60
2019-05-22T20:39:24.127Z,12.50
2019-05-22T20:41:50.938Z,12.50
2019-05-22T20:44:17.335Z,12.40
2019-05-22T20:46:50.965Z,12.50
2019-05-22T20:49:17.475Z,12.40
2019-05-22T20:51:44.064Z,12.40
2019-05-22T20:54:12.502Z,12.40
2019-05-22T20:56:42.888Z,12.30
2019-05-22T20:59:10.073Z,12.20
2019-05-22T21:01:36.819Z,12.20
2019-05-22T21:04:08.184Z,12.20
2019-05-22T21:06:41.617Z,12.20
2019-05-22T21:09:08.516Z,12.10
2019-05-22T21:11:34.950Z,12.20
2019-05-22T21:14:01.329Z,12.20
2019-05-22T21:16:27.876Z,12.20
2019-05-22T21:18:56.266Z,12.20
2019-05-22T21:21:24.748Z,12.20
2019-05-22T21:23:51.289Z,12.20
2019-05-22T21:26:18.209Z,12.30
2019-05-22T21:28:45.847Z,12.30
2019-05-22T21:31:14.046Z,12.30
2019-05-22T21:33:41.144Z,12.30
2019-05-22T21:36:07.900Z,12.20
2019-05-22T21:38:34.505Z,12.20
2019-05-22T21:41:01.695Z,12.10
2019-05-22T21:43:27.941Z,12.10
2019-05-22T21:45:54.914Z,12.00
2019-05-22T21:48:22.089Z,11.90
2019-05-22T21:50:49.175Z,11.70
2019-05-22T21:53:16.305Z,11.70
2019-05-22T21:55:45.646Z,11.60
2019-05-22T21:58:12.396Z,11.60
2019-05-22T22:00:44.337Z,11.50
2019-05-22T22:03:15.744Z,11.60
2019-05-22T22:05:43.031Z,11.70
2019-05-22T22:08:09.733Z,11.70
2019-05-22T22:10:36.797Z,11.70
2019-05-22T22:13:07.724Z,11.60
2019-05-22T22:15:36.117Z,11.40
2019-05-22T22:18:03.678Z,11.50
2019-05-22T22:20:30.208Z,11.40
2019-05-22T22:22:57.172Z,11.20
2019-05-22T22:25:24.218Z,11.20
2019-05-22T22:27:50.514Z,11.40
2019-05-22T22:30:33.220Z,11.40
2019-05-22T22:33:03.800Z,11.40
2019-05-22T22:35:30.934Z,11.50
2019-05-22T22:37:57.307Z,11.50
2019-05-22T22:40:26.656Z,11.50
2019-05-22T22:42:53.562Z,11.40
2019-05-22T22:45:34.637Z,11.20
2019-05-22T22:48:01.400Z,11.30
2019-05-22T22:50:28.203Z,11.40
2019-05-22T22:52:54.793Z,11.40
2019-05-22T22:55:23.416Z,11.40
2019-05-22T22:57:50.861Z,11.30
2019-05-22T23:00:19.956Z,11.30
2019-05-22T23:02:48.302Z,11.30
2019-05-22T23:05:16.368Z,11.40
2019-05-22T23:07:43.257Z,11.40
2019-05-22T23:10:12.627Z,11.40
2019-05-22T23:12:39.663Z,11.40
2019-05-22T23:15:07.055Z,11.40
2019-05-22T23:17:33.342Z,11.30
2019-05-22T23:19:59.377Z,11.40
2019-05-22T23:22:26.874Z,11.40
2019-05-22T23:24:53.311Z,11.40
2019-05-22T23:27:20.413Z,11.50
2019-05-22T23:29:47.681Z,11.30
2019-05-22T23:32:14.918Z,11.20
2019-05-22T23:34:43.499Z,11.20
2019-05-22T23:37:12.369Z,11.10
2019-05-22T23:39:39.111Z,10.90
2019-05-22T23:42:09.601Z,10.90
2019-05-22T23:44:37.033Z,10.80
2019-05-22T23:47:04.917Z,10.80
2019-05-22T23:49:31.948Z,10.80
2019-05-22T23:51:58.745Z,10.90
2019-05-22T23:54:26.832Z,10.70
2019-05-22T23:56:53.462Z,10.50
2019-05-22T23:59:20.333Z,10.30
